sensor_id;sensor_type;location;lat;lon;timestamp;P1;durP1;ratioP1;P2;durP2;ratioP2
43606;SDS011;29197;44.788;10.366;2023-09-12T00:01:06;5.63;;;4.90;;
43606;SDS011;29197;44.788;10.366;2023-09-12T00:03:55;10.52;;;6.20;;
43606;SDS011;29197;44.788;10.366;2023-09-12T00:06:45;7.75;;;6.38;;
43606;SDS011;29197;44.788;10.366;2023-09-12T00:09:34;7.63;;;5.85;;
43606;SDS011;29197;44.788;10.366;2023-09-12T00:12:23;8.27;;;6.00;;
43606;SDS011;29197;44.788;10.366;2023-09-12T00:15:12;8.10;;;5.30;;
43606;SDS011;29197;44.788;10.366;2023-09-12T00:18:00;8.90;;;6.57;;
43606;SDS011;29197;44.788;10.366;2023-09-12T00:20:50;6.28;;;5.25;;
43606;SDS011;29197;44.788;10.366;2023-09-12T00:23:40;7.25;;;5.80;;
43606;SDS011;29197;44.788;10.366;2023-09-12T00:26:28;6.10;;;5.00;;
43606;SDS011;29197;44.788;10.366;2023-09-12T00:29:18;6.53;;;5.03;;
43606;SDS011;29197;44.788;10.366;2023-09-12T00:32:06;6.70;;;5.25;;
43606;SDS011;29197;44.788;10.366;2023-09-12T00:34:55;7.13;;;5.63;;
43606;SDS011;29197;44.788;10.366;2023-09-12T00:37:43;5.80;;;5.03;;
43606;SDS011;29197;44.788;10.366;2023-09-12T00:40:33;5.63;;;5.03;;
43606;SDS011;29197;44.788;10.366;2023-09-12T00:43:22;5.85;;;5.25;;
43606;SDS011;29197;44.788;10.366;2023-09-12T00:46:11;7.50;;;5.65;;
43606;SDS011;29197;44.788;10.366;2023-09-12T00:49:01;7.13;;;5.25;;
43606;SDS011;29197;44.788;10.366;2023-09-12T00:51:51;6.28;;;4.72;;
43606;SDS011;29197;44.788;10.366;2023-09-12T00:54:41;11.20;;;6.47;;
43606;SDS011;29197;44.788;10.366;2023-09-12T00:57:31;6.40;;;5.40;;
43606;SDS011;29197;44.788;10.366;2023-09-12T01:00:22;6.82;;;5.78;;
43606;SDS011;29197;44.788;10.366;2023-09-12T01:03:11;8.98;;;5.28;;
43606;SDS011;29197;44.788;10.366;2023-09-12T01:06:00;7.50;;;5.68;;
43606;SDS011;29197;44.788;10.366;2023-09-12T01:08:52;7.18;;;5.32;;
43606;SDS011;29197;44.788;10.366;2023-09-12T01:11:41;6.00;;;5.25;;
43606;SDS011;29197;44.788;10.366;2023-09-12T01:14:31;7.72;;;5.60;;
43606;SDS011;29197;44.788;10.366;2023-09-12T01:17:20;8.02;;;6.25;;
43606;SDS011;29197;44.788;10.366;2023-09-12T01:20:10;7.22;;;6.50;;
43606;SDS011;29197;44.788;10.366;2023-09-12T01:23:13;7.55;;;6.22;;
43606;SDS011;29197;44.788;10.366;2023-09-12T01:26:23;6.35;;;5.28;;
43606;SDS011;29197;44.788;10.366;2023-09-12T01:29:19;6.65;;;5.80;;
43606;SDS011;29197;44.788;10.366;2023-09-12T01:32:10;8.20;;;5.97;;
43606;SDS011;29197;44.788;10.366;2023-09-12T01:34:59;6.93;;;5.28;;
43606;SDS011;29197;44.788;10.366;2023-09-12T01:37:50;9.70;;;6.57;;
43606;SDS011;29197;44.788;10.366;2023-09-12T01:40:40;7.50;;;5.78;;
43606;SDS011;29197;44.788;10.366;2023-09-12T01:43:32;6.10;;;5.30;;
43606;SDS011;29197;44.788;10.366;2023-09-12T01:46:23;6.72;;;5.40;;
43606;SDS011;29197;44.788;10.366;2023-09-12T01:49:13;6.97;;;5.30;;
43606;SDS011;29197;44.788;10.366;2023-09-12T01:52:05;6.65;;;5.55;;
43606;SDS011;29197;44.788;10.366;2023-09-12T01:54:55;6.55;;;5.15;;
43606;SDS011;29197;44.788;10.366;2023-09-12T01:57:44;5.95;;;5.00;;
43606;SDS011;29197;44.788;10.366;2023-09-12T02:00:34;7.03;;;5.88;;
43606;SDS011;29197;44.788;10.366;2023-09-12T02:03:25;8.43;;;6.18;;
43606;SDS011;29197;44.788;10.366;2023-09-12T02:06:14;8.93;;;6.43;;
43606;SDS011;29197;44.788;10.366;2023-09-12T02:09:02;7.10;;;6.43;;
43606;SDS011;29197;44.788;10.366;2023-09-12T02:11:51;8.73;;;5.10;;
43606;SDS011;29197;44.788;10.366;2023-09-12T02:14:39;5.53;;;4.90;;
43606;SDS011;29197;44.788;10.366;2023-09-12T02:17:28;6.05;;;5.40;;
43606;SDS011;29197;44.788;10.366;2023-09-12T02:20:18;9.07;;;6.32;;
43606;SDS011;29197;44.788;10.366;2023-09-12T02:23:07;7.10;;;5.85;;
43606;SDS011;29197;44.788;10.366;2023-09-12T02:25:56;9.13;;;6.45;;
43606;SDS011;29197;44.788;10.366;2023-09-12T02:28:45;6.05;;;5.45;;
43606;SDS011;29197;44.788;10.366;2023-09-12T02:31:33;6.30;;;5.57;;
43606;SDS011;29197;44.788;10.366;2023-09-12T02:34:22;12.82;;;7.38;;
43606;SDS011;29197;44.788;10.366;2023-09-12T02:37:12;8.45;;;5.70;;
43606;SDS011;29197;44.788;10.366;2023-09-12T02:40:02;9.50;;;7.20;;
43606;SDS011;29197;44.788;10.366;2023-09-12T02:42:52;7.30;;;5.75;;
43606;SDS011;29197;44.788;10.366;2023-09-12T02:45:41;6.20;;;5.28;;
43606;SDS011;29197;44.788;10.366;2023-09-12T02:48:31;6.15;;;5.40;;
43606;SDS011;29197;44.788;10.366;2023-09-12T02:51:19;5.85;;;5.30;;
43606;SDS011;29197;44.788;10.366;2023-09-12T02:54:09;6.55;;;5.40;;
43606;SDS011;29197;44.788;10.366;2023-09-12T02:56:58;6.55;;;5.20;;
43606;SDS011;29197;44.788;10.366;2023-09-12T02:59:46;7.47;;;6.05;;
43606;SDS011;29197;44.788;10.366;2023-09-12T03:02:35;6.05;;;5.15;;
43606;SDS011;29197;44.788;10.366;2023-09-12T03:05:24;7.65;;;5.90;;
43606;SDS011;29197;44.788;10.366;2023-09-12T03:08:12;7.38;;;6.03;;
43606;SDS011;29197;44.788;10.366;2023-09-12T03:11:02;6.50;;;5.40;;
43606;SDS011;29197;44.788;10.366;2023-09-12T03:13:51;6.20;;;5.60;;
43606;SDS011;29197;44.788;10.366;2023-09-12T03:16:39;5.90;;;4.93;;
43606;SDS011;29197;44.788;10.366;2023-09-12T03:19:29;6.10;;;4.88;;
43606;SDS011;29197;44.788;10.366;2023-09-12T03:22:18;7.35;;;6.28;;
43606;SDS011;29197;44.788;10.366;2023-09-12T03:25:07;6.72;;;5.78;;
43606;SDS011;29197;44.788;10.366;2023-09-12T03:27:57;6.85;;;5.25;;
43606;SDS011;29197;44.788;10.366;2023-09-12T03:30:46;5.30;;;4.72;;
43606;SDS011;29197;44.788;10.366;2023-09-12T03:33:34;9.77;;;6.00;;
43606;SDS011;29197;44.788;10.366;2023-09-12T03:36:23;6.28;;;5.57;;
43606;SDS011;29197;44.788;10.366;2023-09-12T03:39:12;6.47;;;5.53;;
43606;SDS011;29197;44.788;10.366;2023-09-12T03:42:01;5.85;;;5.07;;
43606;SDS011;29197;44.788;10.366;2023-09-12T03:44:52;8.02;;;5.55;;
43606;SDS011;29197;44.788;10.366;2023-09-12T03:47:40;5.85;;;5.20;;
43606;SDS011;29197;44.788;10.366;2023-09-12T03:50:30;6.47;;;5.88;;
43606;SDS011;29197;44.788;10.366;2023-09-12T03:53:19;6.43;;;5.43;;
43606;SDS011;29197;44.788;10.366;2023-09-12T03:56:07;6.93;;;5.53;;
43606;SDS011;29197;44.788;10.366;2023-09-12T03:58:59;7.55;;;5.65;;
43606;SDS011;29197;44.788;10.366;2023-09-12T04:01:49;6.90;;;6.00;;
43606;SDS011;29197;44.788;10.366;2023-09-12T04:04:37;7.18;;;5.80;;
43606;SDS011;29197;44.788;10.366;2023-09-12T04:07:26;7.40;;;6.10;;
43606;SDS011;29197;44.788;10.366;2023-09-12T04:10:15;6.93;;;5.88;;
43606;SDS011;29197;44.788;10.366;2023-09-12T04:13:06;6.03;;;5.05;;
43606;SDS011;29197;44.788;10.366;2023-09-12T04:15:54;6.00;;;5.35;;
43606;SDS011;29197;44.788;10.366;2023-09-12T04:18:45;5.75;;;4.95;;
43606;SDS011;29197;44.788;10.366;2023-09-12T04:21:34;6.93;;;5.25;;
43606;SDS011;29197;44.788;10.366;2023-09-12T04:24:22;6.65;;;5.72;;
43606;SDS011;29197;44.788;10.366;2023-09-12T04:27:11;6.72;;;5.95;;
43606;SDS011;29197;44.788;10.366;2023-09-12T04:30:00;5.85;;;5.03;;
43606;SDS011;29197;44.788;10.366;2023-09-12T04:32:50;5.15;;;4.60;;
43606;SDS011;29197;44.788;10.366;2023-09-12T04:35:40;7.85;;;6.13;;
43606;SDS011;29197;44.788;10.366;2023-09-12T04:38:29;6.32;;;5.72;;
43606;SDS011;29197;44.788;10.366;2023-09-12T04:41:19;6.43;;;5.40;;
43606;SDS011;29197;44.788;10.366;2023-09-12T04:44:08;10.90;;;6.38;;
43606;SDS011;29197;44.788;10.366;2023-09-12T04:46:57;7.95;;;5.80;;
43606;SDS011;29197;44.788;10.366;2023-09-12T04:49:46;6.78;;;5.43;;
43606;SDS011;29197;44.788;10.366;2023-09-12T04:52:36;6.57;;;5.57;;
43606;SDS011;29197;44.788;10.366;2023-09-12T04:55:24;6.60;;;5.30;;
43606;SDS011;29197;44.788;10.366;2023-09-12T04:58:13;7.72;;;5.47;;
43606;SDS011;29197;44.788;10.366;2023-09-12T05:01:01;6.10;;;5.43;;
43606;SDS011;29197;44.788;10.366;2023-09-12T05:03:50;7.80;;;6.20;;
43606;SDS011;29197;44.788;10.366;2023-09-12T05:06:39;8.88;;;6.50;;
43606;SDS011;29197;44.788;10.366;2023-09-12T05:09:30;6.70;;;5.72;;
43606;SDS011;29197;44.788;10.366;2023-09-12T05:12:18;7.22;;;6.07;;
43606;SDS011;29197;44.788;10.366;2023-09-12T05:15:07;9.90;;;6.50;;
43606;SDS011;29197;44.788;10.366;2023-09-12T05:17:56;9.25;;;6.60;;
43606;SDS011;29197;44.788;10.366;2023-09-12T05:20:45;6.68;;;5.60;;
43606;SDS011;29197;44.788;10.366;2023-09-12T05:23:34;10.80;;;6.53;;
43606;SDS011;29197;44.788;10.366;2023-09-12T05:26:24;7.88;;;5.75;;
43606;SDS011;29197;44.788;10.366;2023-09-12T05:29:13;7.75;;;5.72;;
43606;SDS011;29197;44.788;10.366;2023-09-12T05:32:02;8.10;;;6.10;;
43606;SDS011;29197;44.788;10.366;2023-09-12T05:34:51;8.48;;;5.20;;
43606;SDS011;29197;44.788;10.366;2023-09-12T05:37:56;6.80;;;5.65;;
43606;SDS011;29197;44.788;10.366;2023-09-12T05:40:45;7.38;;;5.97;;
43606;SDS011;29197;44.788;10.366;2023-09-12T05:43:37;10.10;;;7.25;;
43606;SDS011;29197;44.788;10.366;2023-09-12T05:46:26;10.15;;;6.60;;
43606;SDS011;29197;44.788;10.366;2023-09-12T05:49:15;7.05;;;6.18;;
43606;SDS011;29197;44.788;10.366;2023-09-12T05:52:04;8.05;;;6.13;;
43606;SDS011;29197;44.788;10.366;2023-09-12T05:54:53;9.82;;;6.25;;
43606;SDS011;29197;44.788;10.366;2023-09-12T05:57:41;8.75;;;5.70;;
43606;SDS011;29197;44.788;10.366;2023-09-12T06:00:31;9.95;;;6.07;;
43606;SDS011;29197;44.788;10.366;2023-09-12T06:03:20;7.55;;;5.88;;
43606;SDS011;29197;44.788;10.366;2023-09-12T06:06:09;11.48;;;6.35;;
43606;SDS011;29197;44.788;10.366;2023-09-12T06:08:58;9.48;;;6.32;;
43606;SDS011;29197;44.788;10.366;2023-09-12T06:11:47;8.82;;;5.88;;
43606;SDS011;29197;44.788;10.366;2023-09-12T06:14:35;7.30;;;5.88;;
43606;SDS011;29197;44.788;10.366;2023-09-12T06:17:25;7.43;;;5.55;;
43606;SDS011;29197;44.788;10.366;2023-09-12T06:20:14;8.80;;;6.30;;
43606;SDS011;29197;44.788;10.366;2023-09-12T06:23:03;9.52;;;6.40;;
43606;SDS011;29197;44.788;10.366;2023-09-12T06:25:52;6.47;;;5.78;;
43606;SDS011;29197;44.788;10.366;2023-09-12T06:28:40;9.25;;;5.93;;
43606;SDS011;29197;44.788;10.366;2023-09-12T06:31:29;8.00;;;6.15;;
43606;SDS011;29197;44.788;10.366;2023-09-12T06:34:20;7.55;;;5.57;;
43606;SDS011;29197;44.788;10.366;2023-09-12T06:37:08;7.32;;;5.28;;
43606;SDS011;29197;44.788;10.366;2023-09-12T06:39:59;6.38;;;5.07;;
43606;SDS011;29197;44.788;10.366;2023-09-12T06:42:47;6.22;;;5.13;;
43606;SDS011;29197;44.788;10.366;2023-09-12T06:45:36;8.30;;;5.60;;
43606;SDS011;29197;44.788;10.366;2023-09-12T06:48:25;9.73;;;5.90;;
43606;SDS011;29197;44.788;10.366;2023-09-12T06:51:15;8.40;;;6.35;;
43606;SDS011;29197;44.788;10.366;2023-09-12T06:54:04;10.38;;;5.68;;
43606;SDS011;29197;44.788;10.366;2023-09-12T06:56:53;9.70;;;6.35;;
43606;SDS011;29197;44.788;10.366;2023-09-12T06:59:42;5.70;;;4.93;;
43606;SDS011;29197;44.788;10.366;2023-09-12T07:02:30;7.45;;;5.78;;
43606;SDS011;29197;44.788;10.366;2023-09-12T07:05:19;6.70;;;5.18;;
43606;SDS011;29197;44.788;10.366;2023-09-12T07:08:09;12.07;;;6.18;;
43606;SDS011;29197;44.788;10.366;2023-09-12T07:10:58;6.70;;;5.35;;
43606;SDS011;29197;44.788;10.366;2023-09-12T07:13:52;11.52;;;5.85;;
43606;SDS011;29197;44.788;10.366;2023-09-12T07:16:41;6.10;;;5.18;;
43606;SDS011;29197;44.788;10.366;2023-09-12T07:19:29;11.00;;;5.60;;
43606;SDS011;29197;44.788;10.366;2023-09-12T07:22:18;10.70;;;5.53;;
43606;SDS011;29197;44.788;10.366;2023-09-12T07:25:08;8.68;;;6.28;;
43606;SDS011;29197;44.788;10.366;2023-09-12T07:27:58;7.38;;;5.47;;
43606;SDS011;29197;44.788;10.366;2023-09-12T07:30:47;6.20;;;5.32;;
43606;SDS011;29197;44.788;10.366;2023-09-12T07:33:36;6.32;;;5.53;;
43606;SDS011;29197;44.788;10.366;2023-09-12T07:36:24;5.90;;;5.30;;
43606;SDS011;29197;44.788;10.366;2023-09-12T07:39:13;8.15;;;6.03;;
43606;SDS011;29197;44.788;10.366;2023-09-12T07:42:03;6.55;;;5.50;;
43606;SDS011;29197;44.788;10.366;2023-09-12T07:44:52;10.13;;;6.93;;
43606;SDS011;29197;44.788;10.366;2023-09-12T07:47:41;8.13;;;6.45;;
43606;SDS011;29197;44.788;10.366;2023-09-12T07:50:30;10.73;;;7.13;;
43606;SDS011;29197;44.788;10.366;2023-09-12T07:53:18;7.30;;;5.97;;
43606;SDS011;29197;44.788;10.366;2023-09-12T07:56:08;7.85;;;6.45;;
43606;SDS011;29197;44.788;10.366;2023-09-12T07:58:59;7.60;;;6.50;;
43606;SDS011;29197;44.788;10.366;2023-09-12T08:01:47;10.05;;;7.15;;
43606;SDS011;29197;44.788;10.366;2023-09-12T08:04:36;9.93;;;6.80;;
43606;SDS011;29197;44.788;10.366;2023-09-12T08:07:25;11.35;;;7.05;;
43606;SDS011;29197;44.788;10.366;2023-09-12T08:10:13;8.05;;;6.85;;
43606;SDS011;29197;44.788;10.366;2023-09-12T08:13:02;14.18;;;7.07;;
43606;SDS011;29197;44.788;10.366;2023-09-12T08:15:52;9.38;;;6.85;;
43606;SDS011;29197;44.788;10.366;2023-09-12T08:18:41;10.93;;;7.22;;
43606;SDS011;29197;44.788;10.366;2023-09-12T08:21:30;11.60;;;8.75;;
43606;SDS011;29197;44.788;10.366;2023-09-12T08:24:18;9.40;;;7.18;;
43606;SDS011;29197;44.788;10.366;2023-09-12T08:27:07;8.18;;;6.90;;
43606;SDS011;29197;44.788;10.366;2023-09-12T08:29:56;11.43;;;7.20;;
43606;SDS011;29197;44.788;10.366;2023-09-12T08:32:46;8.27;;;7.13;;
43606;SDS011;29197;44.788;10.366;2023-09-12T08:35:35;8.63;;;7.38;;
43606;SDS011;29197;44.788;10.366;2023-09-12T08:38:24;13.38;;;10.38;;
43606;SDS011;29197;44.788;10.366;2023-09-12T08:41:13;9.40;;;7.15;;
43606;SDS011;29197;44.788;10.366;2023-09-12T08:44:01;8.40;;;6.68;;
43606;SDS011;29197;44.788;10.366;2023-09-12T08:46:52;12.60;;;9.70;;
43606;SDS011;29197;44.788;10.366;2023-09-12T08:49:42;10.93;;;8.00;;
43606;SDS011;29197;44.788;10.366;2023-09-12T08:52:31;14.60;;;10.10;;
43606;SDS011;29197;44.788;10.366;2023-09-12T08:55:20;8.35;;;7.45;;
43606;SDS011;29197;44.788;10.366;2023-09-12T08:58:09;8.95;;;7.13;;
43606;SDS011;29197;44.788;10.366;2023-09-12T09:00:58;10.00;;;6.90;;
43606;SDS011;29197;44.788;10.366;2023-09-12T09:03:50;8.50;;;6.88;;
43606;SDS011;29197;44.788;10.366;2023-09-12T09:06:40;12.20;;;8.45;;
43606;SDS011;29197;44.788;10.366;2023-09-12T09:09:29;11.90;;;9.00;;
43606;SDS011;29197;44.788;10.366;2023-09-12T09:12:19;13.95;;;9.60;;
43606;SDS011;29197;44.788;10.366;2023-09-12T09:15:20;11.20;;;7.60;;
43606;SDS011;29197;44.788;10.366;2023-09-12T09:18:10;11.60;;;8.95;;
43606;SDS011;29197;44.788;10.366;2023-09-12T09:21:00;13.07;;;8.45;;
43606;SDS011;29197;44.788;10.366;2023-09-12T09:24:07;10.02;;;7.28;;
43606;SDS011;29197;44.788;10.366;2023-09-12T09:26:58;11.70;;;8.45;;
43606;SDS011;29197;44.788;10.366;2023-09-12T09:29:47;14.75;;;9.88;;
43606;SDS011;29197;44.788;10.366;2023-09-12T09:32:36;12.55;;;9.55;;
43606;SDS011;29197;44.788;10.366;2023-09-12T09:35:25;10.65;;;8.55;;
43606;SDS011;29197;44.788;10.366;2023-09-12T09:38:13;11.90;;;7.90;;
43606;SDS011;29197;44.788;10.366;2023-09-12T09:41:08;12.38;;;10.93;;
43606;SDS011;29197;44.788;10.366;2023-09-12T09:43:56;11.07;;;7.57;;
43606;SDS011;29197;44.788;10.366;2023-09-12T09:46:46;20.50;;;12.55;;
43606;SDS011;29197;44.788;10.366;2023-09-12T09:49:39;13.32;;;11.07;;
43606;SDS011;29197;44.788;10.366;2023-09-12T09:52:28;9.52;;;7.60;;
43606;SDS011;29197;44.788;10.366;2023-09-12T09:55:16;13.25;;;7.15;;
43606;SDS011;29197;44.788;10.366;2023-09-12T09:58:09;12.80;;;9.13;;
43606;SDS011;29197;44.788;10.366;2023-09-12T10:01:04;9.30;;;7.20;;
43606;SDS011;29197;44.788;10.366;2023-09-12T10:03:57;10.85;;;7.63;;
43606;SDS011;29197;44.788;10.366;2023-09-12T10:06:47;7.55;;;6.57;;
43606;SDS011;29197;44.788;10.366;2023-09-12T10:09:37;9.82;;;8.05;;
43606;SDS011;29197;44.788;10.366;2023-09-12T10:12:27;7.85;;;6.55;;
43606;SDS011;29197;44.788;10.366;2023-09-12T10:15:20;16.90;;;12.25;;
43606;SDS011;29197;44.788;10.366;2023-09-12T10:18:10;14.23;;;11.43;;
43606;SDS011;29197;44.788;10.366;2023-09-12T10:21:15;13.68;;;8.07;;
43606;SDS011;29197;44.788;10.366;2023-09-12T10:24:11;11.20;;;8.07;;
43606;SDS011;29197;44.788;10.366;2023-09-12T10:27:01;10.65;;;7.43;;
43606;SDS011;29197;44.788;10.366;2023-09-12T10:29:51;11.48;;;7.50;;
43606;SDS011;29197;44.788;10.366;2023-09-12T10:32:41;9.00;;;6.75;;
43606;SDS011;29197;44.788;10.366;2023-09-12T10:35:33;12.27;;;8.45;;
43606;SDS011;29197;44.788;10.366;2023-09-12T10:38:22;11.02;;;8.77;;
43606;SDS011;29197;44.788;10.366;2023-09-12T10:41:14;9.88;;;6.88;;
43606;SDS011;29197;44.788;10.366;2023-09-12T10:44:05;9.52;;;7.00;;
43606;SDS011;29197;44.788;10.366;2023-09-12T10:46:57;7.57;;;6.45;;
43606;SDS011;29197;44.788;10.366;2023-09-12T10:49:47;7.68;;;5.88;;
43606;SDS011;29197;44.788;10.366;2023-09-12T10:52:36;6.70;;;5.90;;
43606;SDS011;29197;44.788;10.366;2023-09-12T10:55:27;7.43;;;6.45;;
43606;SDS011;29197;44.788;10.366;2023-09-12T10:58:16;7.55;;;6.30;;
43606;SDS011;29197;44.788;10.366;2023-09-12T11:01:23;8.25;;;6.53;;
43606;SDS011;29197;44.788;10.366;2023-09-12T11:07:33;7.57;;;5.97;;
43606;SDS011;29197;44.788;10.366;2023-09-12T11:10:32;6.07;;;4.97;;
43606;SDS011;29197;44.788;10.366;2023-09-12T11:13:21;6.82;;;5.60;;
43606;SDS011;29197;44.788;10.366;2023-09-12T11:16:28;7.28;;;5.55;;
43606;SDS011;29197;44.788;10.366;2023-09-12T11:19:17;5.70;;;4.93;;
43606;SDS011;29197;44.788;10.366;2023-09-12T11:22:08;8.07;;;6.05;;
43606;SDS011;29197;44.788;10.366;2023-09-12T11:25:17;7.18;;;5.38;;
43606;SDS011;29197;44.788;10.366;2023-09-12T11:28:09;6.95;;;5.32;;
43606;SDS011;29197;44.788;10.366;2023-09-12T11:30:58;8.38;;;5.20;;
43606;SDS011;29197;44.788;10.366;2023-09-12T11:33:47;5.10;;;4.60;;
43606;SDS011;29197;44.788;10.366;2023-09-12T11:36:40;9.13;;;5.32;;
43606;SDS011;29197;44.788;10.366;2023-09-12T11:39:29;5.57;;;4.90;;
43606;SDS011;29197;44.788;10.366;2023-09-12T11:42:21;7.05;;;5.30;;
43606;SDS011;29197;44.788;10.366;2023-09-12T11:45:12;7.03;;;5.43;;
43606;SDS011;29197;44.788;10.366;2023-09-12T11:48:02;5.93;;;4.95;;
43606;SDS011;29197;44.788;10.366;2023-09-12T11:50:52;11.57;;;5.00;;
43606;SDS011;29197;44.788;10.366;2023-09-12T11:53:42;8.73;;;5.63;;
43606;SDS011;29197;44.788;10.366;2023-09-12T11:56:30;6.70;;;5.32;;
43606;SDS011;29197;44.788;10.366;2023-09-12T11:59:23;9.50;;;5.75;;
43606;SDS011;29197;44.788;10.366;2023-09-12T12:02:12;6.43;;;5.03;;
43606;SDS011;29197;44.788;10.366;2023-09-12T12:05:01;8.75;;;5.53;;
43606;SDS011;29197;44.788;10.366;2023-09-12T12:07:51;6.60;;;4.32;;
43606;SDS011;29197;44.788;10.366;2023-09-12T12:10:51;6.40;;;5.03;;
43606;SDS011;29197;44.788;10.366;2023-09-12T12:13:41;6.13;;;4.97;;
43606;SDS011;29197;44.788;10.366;2023-09-12T12:16:31;5.80;;;4.88;;
43606;SDS011;29197;44.788;10.366;2023-09-12T12:19:20;7.22;;;5.18;;
43606;SDS011;29197;44.788;10.366;2023-09-12T12:22:08;5.55;;;4.72;;
43606;SDS011;29197;44.788;10.366;2023-09-12T12:24:57;5.50;;;4.82;;
43606;SDS011;29197;44.788;10.366;2023-09-12T12:27:53;7.55;;;4.88;;
43606;SDS011;29197;44.788;10.366;2023-09-12T12:30:42;9.40;;;5.78;;
43606;SDS011;29197;44.788;10.366;2023-09-12T12:33:33;5.45;;;4.95;;
43606;SDS011;29197;44.788;10.366;2023-09-12T12:36:41;6.82;;;5.35;;
43606;SDS011;29197;44.788;10.366;2023-09-12T12:39:43;6.80;;;5.43;;
43606;SDS011;29197;44.788;10.366;2023-09-12T12:42:32;5.10;;;4.32;;
43606;SDS011;29197;44.788;10.366;2023-09-12T12:45:35;5.50;;;4.93;;
43606;SDS011;29197;44.788;10.366;2023-09-12T12:48:30;5.78;;;5.18;;
43606;SDS011;29197;44.788;10.366;2023-09-12T12:51:21;9.07;;;4.72;;
43606;SDS011;29197;44.788;10.366;2023-09-12T12:54:10;5.20;;;4.68;;
43606;SDS011;29197;44.788;10.366;2023-09-12T12:56:59;5.43;;;4.70;;
43606;SDS011;29197;44.788;10.366;2023-09-12T12:59:48;8.20;;;5.28;;
43606;SDS011;29197;44.788;10.366;2023-09-12T13:02:37;6.88;;;5.10;;
43606;SDS011;29197;44.788;10.366;2023-09-12T13:05:26;6.88;;;4.88;;
43606;SDS011;29197;44.788;10.366;2023-09-12T13:08:17;5.70;;;5.10;;
43606;SDS011;29197;44.788;10.366;2023-09-12T13:11:05;6.43;;;4.97;;
43606;SDS011;29197;44.788;10.366;2023-09-12T13:13:55;8.20;;;4.97;;
43606;SDS011;29197;44.788;10.366;2023-09-12T13:16:43;6.35;;;5.32;;
43606;SDS011;29197;44.788;10.366;2023-09-12T13:19:32;6.18;;;5.30;;
43606;SDS011;29197;44.788;10.366;2023-09-12T13:22:21;6.57;;;4.85;;
43606;SDS011;29197;44.788;10.366;2023-09-12T13:25:11;6.13;;;5.43;;
43606;SDS011;29197;44.788;10.366;2023-09-12T13:27:59;10.10;;;5.22;;
43606;SDS011;29197;44.788;10.366;2023-09-12T13:30:48;6.10;;;5.45;;
43606;SDS011;29197;44.788;10.366;2023-09-12T13:33:37;8.23;;;5.40;;
43606;SDS011;29197;44.788;10.366;2023-09-12T13:36:25;7.45;;;4.68;;
43606;SDS011;29197;44.788;10.366;2023-09-12T13:39:14;4.78;;;4.38;;
43606;SDS011;29197;44.788;10.366;2023-09-12T13:42:06;5.38;;;4.85;;
43606;SDS011;29197;44.788;10.366;2023-09-12T13:44:56;6.13;;;4.60;;
43606;SDS011;29197;44.788;10.366;2023-09-12T13:47:45;6.38;;;4.88;;
43606;SDS011;29197;44.788;10.366;2023-09-12T13:50:34;5.27;;;4.30;;
43606;SDS011;29197;44.788;10.366;2023-09-12T13:53:22;5.50;;;4.68;;
43606;SDS011;29197;44.788;10.366;2023-09-12T13:56:11;5.55;;;4.50;;
43606;SDS011;29197;44.788;10.366;2023-09-12T13:59:01;7.07;;;5.20;;
43606;SDS011;29197;44.788;10.366;2023-09-12T14:01:52;5.38;;;4.88;;
43606;SDS011;29197;44.788;10.366;2023-09-12T14:04:41;6.40;;;4.88;;
43606;SDS011;29197;44.788;10.366;2023-09-12T14:07:30;7.65;;;5.07;;
43606;SDS011;29197;44.788;10.366;2023-09-12T14:10:20;7.78;;;5.70;;
43606;SDS011;29197;44.788;10.366;2023-09-12T14:13:20;6.50;;;4.60;;
43606;SDS011;29197;44.788;10.366;2023-09-12T14:16:11;6.97;;;5.10;;
43606;SDS011;29197;44.788;10.366;2023-09-12T14:19:00;5.90;;;4.85;;
43606;SDS011;29197;44.788;10.366;2023-09-12T14:21:50;7.03;;;5.05;;
43606;SDS011;29197;44.788;10.366;2023-09-12T14:24:40;5.35;;;4.85;;
43606;SDS011;29197;44.788;10.366;2023-09-12T14:27:29;7.68;;;4.70;;
43606;SDS011;29197;44.788;10.366;2023-09-12T14:30:17;6.10;;;5.10;;
43606;SDS011;29197;44.788;10.366;2023-09-12T14:33:08;4.85;;;4.35;;
43606;SDS011;29197;44.788;10.366;2023-09-12T14:35:58;5.72;;;5.10;;
43606;SDS011;29197;44.788;10.366;2023-09-12T14:38:48;6.10;;;5.20;;
43606;SDS011;29197;44.788;10.366;2023-09-12T14:41:36;5.47;;;4.93;;
43606;SDS011;29197;44.788;10.366;2023-09-12T14:44:25;5.95;;;5.32;;
43606;SDS011;29197;44.788;10.366;2023-09-12T14:47:14;5.97;;;5.22;;
43606;SDS011;29197;44.788;10.366;2023-09-12T14:50:06;7.32;;;4.80;;
43606;SDS011;29197;44.788;10.366;2023-09-12T14:52:57;5.25;;;4.45;;
43606;SDS011;29197;44.788;10.366;2023-09-12T14:55:47;5.55;;;4.97;;
43606;SDS011;29197;44.788;10.366;2023-09-12T14:58:38;4.78;;;4.30;;
43606;SDS011;29197;44.788;10.366;2023-09-12T15:01:29;6.80;;;4.93;;
43606;SDS011;29197;44.788;10.366;2023-09-12T15:04:17;6.63;;;4.78;;
43606;SDS011;29197;44.788;10.366;2023-09-12T15:07:07;6.93;;;5.65;;
43606;SDS011;29197;44.788;10.366;2023-09-12T15:09:56;6.50;;;4.80;;
43606;SDS011;29197;44.788;10.366;2023-09-12T15:12:45;6.88;;;4.82;;
43606;SDS011;29197;44.788;10.366;2023-09-12T15:15:33;7.53;;;5.45;;
43606;SDS011;29197;44.788;10.366;2023-09-12T15:18:22;9.30;;;5.93;;
43606;SDS011;29197;44.788;10.366;2023-09-12T15:21:11;5.85;;;5.20;;
43606;SDS011;29197;44.788;10.366;2023-09-12T15:24:01;8.88;;;4.95;;
43606;SDS011;29197;44.788;10.366;2023-09-12T15:26:50;7.50;;;5.32;;
43606;SDS011;29197;44.788;10.366;2023-09-12T15:29:39;6.25;;;4.90;;
43606;SDS011;29197;44.788;10.366;2023-09-12T15:32:27;6.55;;;4.88;;
43606;SDS011;29197;44.788;10.366;2023-09-12T15:35:16;5.95;;;5.35;;
43606;SDS011;29197;44.788;10.366;2023-09-12T15:38:05;7.13;;;5.75;;
43606;SDS011;29197;44.788;10.366;2023-09-12T15:40:55;5.95;;;5.18;;
43606;SDS011;29197;44.788;10.366;2023-09-12T15:46:53;5.85;;;4.95;;
43606;SDS011;29197;44.788;10.366;2023-09-12T15:50:01;6.63;;;5.28;;
43606;SDS011;29197;44.788;10.366;2023-09-12T15:52:50;5.28;;;4.75;;
43606;SDS011;29197;44.788;10.366;2023-09-12T15:55:39;5.93;;;5.32;;
43606;SDS011;29197;44.788;10.366;2023-09-12T15:58:29;6.47;;;5.00;;
43606;SDS011;29197;44.788;10.366;2023-09-12T16:01:18;7.13;;;5.80;;
43606;SDS011;29197;44.788;10.366;2023-09-12T16:04:06;8.45;;;4.72;;
43606;SDS011;29197;44.788;10.366;2023-09-12T16:06:55;5.57;;;4.95;;
43606;SDS011;29197;44.788;10.366;2023-09-12T16:09:45;5.50;;;4.78;;
43606;SDS011;29197;44.788;10.366;2023-09-12T16:12:34;7.80;;;4.68;;
43606;SDS011;29197;44.788;10.366;2023-09-12T16:15:24;7.57;;;5.55;;
43606;SDS011;29197;44.788;10.366;2023-09-12T16:18:13;5.57;;;4.88;;
43606;SDS011;29197;44.788;10.366;2023-09-12T16:21:02;4.40;;;4.00;;
43606;SDS011;29197;44.788;10.366;2023-09-12T16:23:51;4.53;;;4.13;;
43606;SDS011;29197;44.788;10.366;2023-09-12T16:26:41;8.07;;;4.93;;
43606;SDS011;29197;44.788;10.366;2023-09-12T16:29:30;6.35;;;4.78;;
43606;SDS011;29197;44.788;10.366;2023-09-12T16:32:20;6.63;;;5.68;;
43606;SDS011;29197;44.788;10.366;2023-09-12T16:35:09;6.20;;;5.05;;
43606;SDS011;29197;44.788;10.366;2023-09-12T16:37:57;7.22;;;5.20;;
43606;SDS011;29197;44.788;10.366;2023-09-12T16:40:46;7.22;;;5.22;;
43606;SDS011;29197;44.788;10.366;2023-09-12T16:43:35;6.75;;;5.35;;
43606;SDS011;29197;44.788;10.366;2023-09-12T16:46:24;5.95;;;4.93;;
43606;SDS011;29197;44.788;10.366;2023-09-12T16:49:14;6.07;;;5.10;;
43606;SDS011;29197;44.788;10.366;2023-09-12T16:52:03;4.90;;;4.10;;
43606;SDS011;29197;44.788;10.366;2023-09-12T16:54:54;6.63;;;5.10;;